TAF and METAR

METAR for Norne Oil Field

ENNE 030220Z AUTO 33016KT 9999NDV OVC025/// 07/02 Q1019 W///S3
Report created 3. jun 04:20
report generated by an automatic observation system. wind 16 knots from NNW (330°) visibility > 10km overcast at 2500 feet Temperature 7° with dewpoint at 2° (Humidity 70.47%) Pressure 1019 hPa
No TAF available for Norne Oil Field